createdAt,value
2022-08-17T00:02:26.275Z,20.30
2022-08-17T00:04:54.089Z,20.33
2022-08-17T00:07:20.715Z,20.34
2022-08-17T00:09:47.457Z,20.34
2022-08-17T00:12:43.786Z,20.32
2022-08-17T00:15:00.977Z,20.20
2022-08-17T00:17:28.148Z,20.12
2022-08-17T00:19:54.871Z,20.07
2022-08-17T00:22:32.650Z,20.04
2022-08-17T00:25:09.166Z,20.00
2022-08-17T00:27:37.050Z,19.92
2022-08-17T00:30:05.804Z,19.84
2022-08-17T00:33:14.306Z,19.80
2022-08-17T00:35:31.980Z,19.73
2022-08-17T00:37:58.618Z,19.63
2022-08-17T00:40:25.301Z,19.39
2022-08-17T00:42:53.589Z,19.25
2022-08-17T00:45:21.060Z,19.16
2022-08-17T00:47:48.659Z,18.94
2022-08-17T00:50:18.849Z,18.82
2022-08-17T00:52:54.603Z,18.79
2022-08-17T00:55:22.597Z,18.66
2022-08-17T00:57:55.550Z,18.75
2022-08-17T01:00:30.116Z,18.71
2022-08-17T01:03:10.388Z,18.68
2022-08-17T01:05:42.295Z,18.64
2022-08-17T01:08:12.942Z,18.52
2022-08-17T01:10:58.588Z,18.47
2022-08-17T01:13:32.831Z,18.44
2022-08-17T01:16:06.525Z,18.42
2022-08-17T01:18:34.586Z,18.35
2022-08-17T01:21:07.897Z,18.14
2022-08-17T01:23:34.712Z,18.07
2022-08-17T01:26:03.270Z,18.11
2022-08-17T01:28:52.785Z,18.15
2022-08-17T01:31:19.505Z,18.19
2022-08-17T01:33:46.157Z,18.24
2022-08-17T01:36:12.813Z,18.07
2022-08-17T01:38:40.417Z,18.01
2022-08-17T01:41:12.474Z,18.02
2022-08-17T01:44:02.341Z,18.11
2022-08-17T01:46:33.807Z,18.20
2022-08-17T01:49:01.336Z,18.15
2022-08-17T01:51:33.091Z,18.08
2022-08-17T01:54:05.375Z,18.18
2022-08-17T01:56:34.122Z,18.17
2022-08-17T01:59:00.654Z,18.11
2022-08-17T02:01:30.631Z,18.07
2022-08-17T02:04:01.081Z,17.96
2022-08-17T02:06:53.090Z,17.88
2022-08-17T02:09:25.291Z,17.88
2022-08-17T02:11:54.098Z,17.91
2022-08-17T02:14:21.038Z,17.87
2022-08-17T02:16:47.642Z,18.05
2022-08-17T02:19:15.995Z,18.09
2022-08-17T02:21:44.952Z,18.11
2022-08-17T02:24:15.716Z,18.06
2022-08-17T02:26:42.567Z,18.09
2022-08-17T02:29:09.236Z,18.09
2022-08-17T02:31:35.851Z,17.98
2022-08-17T02:34:04.965Z,17.76
2022-08-17T02:36:34.040Z,17.74
2022-08-17T02:39:03.301Z,17.69
2022-08-17T02:41:29.965Z,17.68
2022-08-17T02:43:56.576Z,17.69
2022-08-17T02:46:23.160Z,17.68
2022-08-17T02:48:49.808Z,17.60
2022-08-17T02:51:16.466Z,17.59
2022-08-17T02:53:43.157Z,17.51
2022-08-17T02:56:09.973Z,17.47
2022-08-17T02:58:36.736Z,17.38
2022-08-17T03:01:06.209Z,17.41
2022-08-17T03:03:32.741Z,17.48
2022-08-17T03:05:59.279Z,17.49
2022-08-17T03:08:25.977Z,17.46
2022-08-17T03:10:52.900Z,17.49
2022-08-17T03:13:20.333Z,17.48
2022-08-17T03:15:48.555Z,17.39
2022-08-17T03:18:25.110Z,17.29
2022-08-17T03:20:59.152Z,17.25
2022-08-17T03:23:27.445Z,17.13
2022-08-17T03:25:55.589Z,17.07
2022-08-17T03:28:23.740Z,17.12
2022-08-17T03:30:51.432Z,17.26
2022-08-17T03:33:19.077Z,17.26
2022-08-17T03:35:46.218Z,17.30
2022-08-17T03:38:15.085Z,17.36
2022-08-17T03:40:56.594Z,17.14
2022-08-17T03:43:25.395Z,17.16
2022-08-17T03:46:27.312Z,17.08
2022-08-17T03:49:15.173Z,17.15
2022-08-17T03:52:00.344Z,17.14
2022-08-17T03:54:45.543Z,17.26
2022-08-17T03:57:12.715Z,17.19
2022-08-17T03:59:41.161Z,17.07
2022-08-17T04:02:25.006Z,17.07
2022-08-17T04:04:52.478Z,17.15
2022-08-17T04:07:21.677Z,17.25
2022-08-17T04:09:48.503Z,17.22
2022-08-17T04:12:20.551Z,17.14
2022-08-17T04:14:53.245Z,17.17
2022-08-17T04:17:24.992Z,17.25
2022-08-17T04:19:51.799Z,17.40
2022-08-17T04:22:30.481Z,17.51
2022-08-17T04:25:18.166Z,17.51
2022-08-17T04:27:44.790Z,17.58
2022-08-17T04:30:12.553Z,17.60
2022-08-17T04:33:04.151Z,17.62
2022-08-17T04:35:42.738Z,17.63
2022-08-17T04:38:12.186Z,17.59
2022-08-17T04:40:58.225Z,17.59
2022-08-17T04:43:29.962Z,17.71
2022-08-17T04:46:02.763Z,17.79
2022-08-17T04:48:36.617Z,17.77
2022-08-17T04:51:07.844Z,17.87
2022-08-17T04:53:34.616Z,17.99
2022-08-17T04:56:01.220Z,17.92
2022-08-17T04:58:28.481Z,17.93
2022-08-17T05:00:55.325Z,18.02
2022-08-17T05:03:21.889Z,18.03
2022-08-17T05:05:49.990Z,18.17
2022-08-17T05:08:19.426Z,18.35
2022-08-17T05:10:47.498Z,18.43
2022-08-17T05:13:20.762Z,18.41
2022-08-17T05:15:49.606Z,18.39
2022-08-17T05:18:16.931Z,18.42
2022-08-17T05:20:44.449Z,18.51
2022-08-17T05:23:15.078Z,18.60
2022-08-17T05:25:47.768Z,18.70
2022-08-17T05:28:16.924Z,18.98
2022-08-17T05:30:49.232Z,19.16
2022-08-17T05:33:23.158Z,19.37
2022-08-17T05:35:51.753Z,19.59
2022-08-17T05:38:20.000Z,19.80
2022-08-17T05:40:47.405Z,20.05
2022-08-17T05:43:18.118Z,20.35
2022-08-17T05:45:56.655Z,20.65
2022-08-17T05:48:39.479Z,20.91
2022-08-17T05:51:15.441Z,21.24
2022-08-17T05:53:55.549Z,21.50
2022-08-17T05:56:31.134Z,21.78
2022-08-17T05:59:09.296Z,22.00
2022-08-17T06:01:44.221Z,22.27
2022-08-17T06:04:42.912Z,22.65
2022-08-17T06:07:17.221Z,22.98
2022-08-17T06:09:54.219Z,23.41
2022-08-17T06:12:26.568Z,23.78
2022-08-17T06:15:05.429Z,24.16
2022-08-17T06:17:32.459Z,24.29
2022-08-17T06:20:03.675Z,24.60
2022-08-17T06:22:38.007Z,24.86
2022-08-17T06:25:10.281Z,25.03
2022-08-17T06:27:43.207Z,25.30
2022-08-17T06:30:25.983Z,25.40
2022-08-17T06:32:55.306Z,25.69
2022-08-17T06:35:34.027Z,26.12
2022-08-17T06:38:38.270Z,26.34
2022-08-17T06:41:13.874Z,26.35
2022-08-17T06:43:47.878Z,26.53
2022-08-17T06:46:30.840Z,26.62
2022-08-17T06:49:17.434Z,26.61
2022-08-17T06:51:51.764Z,26.70
2022-08-17T06:54:37.195Z,26.71
2022-08-17T06:57:32.277Z,26.59
2022-08-17T07:00:13.315Z,26.19
2022-08-17T07:03:08.188Z,26.08
2022-08-17T07:06:03.318Z,26.17
2022-08-17T07:08:38.201Z,26.73
2022-08-17T07:11:14.649Z,27.15
2022-08-17T07:14:06.584Z,27.95
2022-08-17T07:16:41.916Z,28.32
2022-08-17T07:19:10.836Z,28.49
2022-08-17T07:21:48.731Z,28.42
2022-08-17T07:24:47.397Z,28.36
2022-08-17T07:27:37.248Z,28.67
2022-08-17T07:30:11.643Z,29.17
2022-08-17T07:32:46.029Z,29.14
2022-08-17T07:35:17.394Z,29.55
2022-08-17T07:38:24.245Z,30.19
2022-08-17T07:40:57.850Z,30.22
2022-08-17T07:43:33.065Z,30.51
2022-08-17T07:46:24.143Z,30.50
2022-08-17T07:48:55.032Z,30.93
2022-08-17T07:51:28.588Z,30.71
2022-08-17T07:54:22.514Z,30.65
2022-08-17T07:56:55.243Z,31.12
2022-08-17T07:59:33.983Z,31.10
2022-08-17T08:02:05.402Z,31.42
2022-08-17T08:07:32.081Z,31.99
2022-08-17T08:10:12.508Z,31.76
2022-08-17T08:12:53.654Z,32.36
2022-08-17T08:15:33.606Z,32.07
2022-08-17T08:18:03.347Z,32.15
2022-08-17T08:20:53.898Z,32.41
2022-08-17T08:23:33.486Z,32.87
2022-08-17T08:26:31.095Z,32.76
2022-08-17T08:29:28.406Z,32.58
2022-08-17T08:32:10.222Z,32.52
2022-08-17T08:35:03.691Z,33.25
2022-08-17T08:37:58.431Z,33.50
2022-08-17T08:40:40.175Z,33.18
2022-08-17T08:43:22.591Z,33.36
2022-08-17T08:45:56.755Z,33.62
2022-08-17T08:48:58.019Z,33.14
2022-08-17T08:51:36.344Z,33.86
2022-08-17T08:54:26.863Z,34.29
2022-08-17T09:00:02.072Z,34.00
2022-08-17T09:02:43.538Z,34.05
2022-08-17T09:05:28.819Z,34.07
2022-08-17T09:08:07.752Z,34.53
2022-08-17T09:10:40.779Z,34.77
2022-08-17T09:13:16.372Z,34.63
2022-08-17T09:15:47.443Z,35.38
2022-08-17T09:19:00.841Z,35.14
2022-08-17T09:21:22.608Z,35.57
2022-08-17T09:24:04.909Z,35.48
2022-08-17T09:26:40.993Z,34.74
2022-08-17T09:29:12.586Z,34.73
2022-08-17T09:31:52.643Z,34.60
2022-08-17T09:34:32.119Z,35.15
2022-08-17T09:37:25.947Z,35.26
2022-08-17T09:40:09.671Z,35.62
2022-08-17T09:42:45.772Z,35.81
2022-08-17T09:45:39.080Z,35.69
2022-08-17T09:48:18.440Z,35.91
2022-08-17T09:51:07.355Z,35.59
2022-08-17T09:53:38.176Z,35.98
2022-08-17T09:56:24.230Z,35.71
2022-08-17T09:59:14.097Z,36.08
2022-08-17T10:01:55.780Z,35.66
2022-08-17T10:04:29.896Z,36.12
2022-08-17T10:07:19.046Z,35.97
2022-08-17T10:10:03.802Z,35.85
2022-08-17T10:12:47.157Z,36.54
2022-08-17T10:15:52.347Z,36.77
2022-08-17T10:19:05.512Z,36.95
2022-08-17T10:22:00.664Z,36.48
2022-08-17T10:25:21.331Z,36.09
2022-08-17T10:27:52.264Z,36.64
2022-08-17T10:30:22.472Z,36.08
2022-08-17T10:32:55.145Z,35.78
2022-08-17T10:35:35.684Z,36.25
2022-08-17T10:38:27.784Z,36.29
2022-08-17T10:40:57.897Z,37.11
2022-08-17T10:43:34.082Z,36.50
2022-08-17T10:46:31.389Z,36.47
2022-08-17T10:49:16.794Z,36.00
2022-08-17T10:51:49.344Z,36.18
2022-08-17T10:54:25.069Z,37.09
2022-08-17T10:56:53.837Z,37.59
2022-08-17T10:59:35.584Z,37.64
2022-08-17T11:02:05.064Z,37.87
2022-08-17T11:04:50.364Z,37.36
2022-08-17T11:07:39.828Z,36.91
2022-08-17T11:10:46.470Z,36.64
2022-08-17T11:13:38.796Z,36.96
2022-08-17T11:16:28.527Z,37.51
2022-08-17T11:19:18.766Z,37.22
2022-08-17T11:22:12.917Z,36.87
2022-08-17T11:24:44.671Z,36.62
2022-08-17T11:27:24.890Z,35.36
2022-08-17T11:30:15.103Z,35.42
2022-08-17T11:32:53.007Z,35.47
2022-08-17T11:35:21.591Z,36.03
2022-08-17T11:38:16.127Z,36.49
2022-08-17T11:41:03.585Z,37.13
2022-08-17T11:44:08.076Z,36.78
2022-08-17T11:47:20.913Z,36.75
2022-08-17T11:50:28.014Z,36.16
2022-08-17T11:52:55.392Z,36.63
2022-08-17T11:55:39.415Z,36.95
2022-08-17T11:58:30.161Z,37.27
2022-08-17T12:01:00.951Z,37.18
2022-08-17T12:03:33.498Z,37.48
2022-08-17T12:06:11.297Z,37.66
2022-08-17T12:08:45.760Z,37.32
2022-08-17T12:12:04.626Z,37.39
2022-08-17T12:14:11.613Z,36.96
2022-08-17T12:16:43.863Z,36.76
2022-08-17T12:19:21.164Z,36.40
2022-08-17T12:22:12.558Z,36.77
2022-08-17T12:24:56.865Z,37.37
2022-08-17T12:28:04.475Z,37.11
2022-08-17T12:30:22.595Z,37.22
2022-08-17T12:32:50.141Z,37.29
2022-08-17T12:35:29.647Z,36.48
2022-08-17T12:38:00.636Z,36.96
2022-08-17T12:40:32.427Z,37.43
2022-08-17T12:43:02.001Z,37.96
2022-08-17T12:45:31.991Z,38.03
2022-08-17T12:48:07.860Z,36.44
2022-08-17T12:50:37.193Z,35.68
2022-08-17T12:53:10.092Z,34.89
2022-08-17T12:55:38.967Z,34.76
2022-08-17T12:58:10.935Z,34.49
2022-08-17T13:00:47.545Z,34.66
2022-08-17T13:03:23.514Z,35.38
2022-08-17T13:05:53.194Z,35.81
2022-08-17T13:08:41.232Z,36.15
2022-08-17T13:11:18.739Z,35.82
2022-08-17T13:13:54.776Z,35.88
2022-08-17T13:16:27.879Z,35.86
2022-08-17T13:19:18.146Z,35.96
2022-08-17T13:21:59.412Z,35.30
2022-08-17T13:24:38.293Z,35.07
2022-08-17T13:27:08.874Z,34.87
2022-08-17T13:29:38.703Z,34.67
2022-08-17T13:32:12.917Z,34.57
2022-08-17T13:35:12.921Z,34.32
2022-08-17T13:37:36.615Z,34.31
2022-08-17T13:40:23.168Z,34.30
2022-08-17T13:42:54.459Z,34.16
2022-08-17T13:45:35.551Z,34.16
2022-08-17T13:48:13.542Z,34.16
2022-08-17T13:50:43.748Z,33.86
2022-08-17T13:53:23.230Z,33.82
2022-08-17T13:55:56.326Z,33.92
2022-08-17T13:58:27.929Z,33.56
2022-08-17T14:00:56.315Z,33.41
2022-08-17T14:03:24.131Z,33.45
2022-08-17T14:05:52.589Z,33.60
2022-08-17T14:08:20.879Z,33.76
2022-08-17T14:10:58.779Z,33.96
2022-08-17T14:13:25.426Z,33.85
2022-08-17T14:15:54.002Z,33.78
2022-08-17T14:18:55.722Z,33.92
2022-08-17T14:21:10.636Z,33.91
2022-08-17T14:23:37.875Z,33.90
2022-08-17T14:26:05.112Z,33.87
2022-08-17T14:28:31.963Z,33.74
2022-08-17T14:31:00.253Z,33.82
2022-08-17T14:33:28.765Z,33.58
2022-08-17T14:35:55.986Z,33.53
2022-08-17T14:38:22.793Z,33.40
2022-08-17T14:40:49.762Z,33.00
2022-08-17T14:43:16.561Z,32.83
2022-08-17T14:45:43.527Z,32.96
2022-08-17T14:48:10.668Z,33.06
2022-08-17T14:50:41.041Z,32.75
2022-08-17T14:53:13.718Z,32.98
2022-08-17T14:55:40.571Z,33.04
2022-08-17T14:58:09.095Z,33.16
2022-08-17T15:00:36.185Z,33.16
2022-08-17T15:03:03.740Z,33.04
2022-08-17T15:05:34.341Z,32.99
2022-08-17T15:08:02.401Z,32.35
2022-08-17T15:10:30.258Z,31.90
2022-08-17T15:12:57.533Z,31.58
2022-08-17T15:15:24.355Z,31.40
2022-08-17T15:17:51.788Z,31.51
2022-08-17T15:20:28.266Z,31.38
2022-08-17T15:22:56.295Z,30.85
2022-08-17T15:25:28.780Z,31.00
2022-08-17T15:27:56.206Z,30.73
2022-08-17T15:30:23.693Z,30.77
2022-08-17T15:32:55.000Z,30.86
2022-08-17T15:35:27.749Z,30.73
2022-08-17T15:38:08.029Z,30.71
2022-08-17T15:40:39.386Z,30.58
2022-08-17T15:43:08.147Z,30.54
2022-08-17T15:45:35.370Z,30.45
2022-08-17T15:48:02.343Z,30.21
2022-08-17T15:50:29.119Z,30.21
2022-08-17T15:53:00.693Z,30.23
2022-08-17T15:55:29.859Z,30.30
2022-08-17T15:57:56.822Z,30.02
2022-08-17T16:00:28.476Z,29.86
2022-08-17T16:03:22.921Z,29.85
2022-08-17T16:05:43.395Z,29.86
2022-08-17T16:08:11.240Z,29.60
2022-08-17T16:10:37.945Z,29.67
2022-08-17T16:13:04.802Z,29.73
2022-08-17T16:15:32.049Z,29.57
2022-08-17T16:17:59.194Z,29.90
2022-08-17T16:20:26.118Z,29.80
2022-08-17T16:22:54.449Z,29.82
2022-08-17T16:25:50.327Z,29.87
2022-08-17T16:28:12.315Z,29.85
2022-08-17T16:30:39.036Z,29.84
2022-08-17T16:33:06.003Z,30.02
2022-08-17T16:35:33.762Z,29.99
2022-08-17T16:38:01.065Z,30.00
2022-08-17T16:40:29.634Z,30.10
2022-08-17T16:43:02.394Z,30.17
2022-08-17T16:45:36.468Z,30.22
2022-08-17T16:48:03.702Z,30.10
2022-08-17T16:50:32.085Z,30.21
2022-08-17T16:53:09.220Z,30.21
2022-08-17T16:55:37.019Z,30.09
2022-08-17T16:58:04.894Z,30.04
2022-08-17T17:00:33.525Z,29.96
2022-08-17T17:03:19.163Z,29.77
2022-08-17T17:06:14.629Z,29.86
2022-08-17T17:08:48.581Z,29.79
2022-08-17T17:11:45.643Z,29.66
2022-08-17T17:14:42.183Z,29.70
2022-08-17T17:17:26.771Z,29.58
2022-08-17T17:20:05.930Z,29.48
2022-08-17T17:22:54.818Z,29.52
2022-08-17T17:25:21.419Z,29.46
2022-08-17T17:28:00.054Z,29.44
2022-08-17T17:30:37.334Z,29.23
2022-08-17T17:33:09.497Z,29.17
2022-08-17T17:35:46.858Z,29.14
2022-08-17T17:38:23.685Z,29.05
2022-08-17T17:41:05.681Z,28.95
2022-08-17T17:43:39.808Z,28.83
2022-08-17T17:46:29.146Z,28.74
2022-08-17T17:48:57.529Z,28.61
2022-08-17T17:52:02.807Z,28.57
2022-08-17T17:54:43.819Z,28.56
2022-08-17T17:57:24.980Z,28.36
2022-08-17T18:00:23.695Z,28.37
2022-08-17T18:03:27.434Z,28.42
2022-08-17T18:06:16.400Z,28.38
2022-08-17T18:09:24.526Z,28.31
2022-08-17T18:12:17.212Z,28.19
2022-08-17T18:14:55.559Z,28.15
2022-08-17T18:17:22.347Z,28.06
2022-08-17T18:19:48.933Z,28.01
2022-08-17T18:22:20.834Z,27.94
2022-08-17T18:24:54.089Z,27.90
2022-08-17T18:27:49.659Z,27.82
2022-08-17T18:30:19.533Z,27.72
2022-08-17T18:32:49.551Z,27.58
2022-08-17T18:35:19.106Z,27.41
2022-08-17T18:38:17.985Z,27.22
2022-08-17T18:40:48.295Z,27.04
2022-08-17T18:43:28.536Z,26.87
2022-08-17T18:46:28.837Z,26.59
2022-08-17T18:48:59.218Z,26.43
2022-08-17T18:51:42.719Z,26.27
2022-08-17T18:54:21.939Z,26.15
2022-08-17T18:56:52.264Z,25.99
2022-08-17T18:59:41.664Z,25.90
2022-08-17T19:02:20.717Z,25.75
2022-08-17T19:04:59.430Z,25.82
2022-08-17T19:07:34.890Z,25.79
2022-08-17T19:10:28.410Z,25.67
2022-08-17T19:13:01.707Z,25.63
2022-08-17T19:16:22.306Z,25.57
2022-08-17T19:18:56.248Z,25.41
2022-08-17T19:21:34.728Z,25.22
2022-08-17T19:24:27.422Z,24.77
2022-08-17T19:27:19.606Z,24.69
2022-08-17T19:30:07.769Z,24.43
2022-08-17T19:32:35.866Z,24.41
2022-08-17T19:35:06.225Z,24.35
2022-08-17T19:37:46.426Z,24.14
2022-08-17T19:40:51.891Z,24.05
2022-08-17T19:43:54.184Z,23.95
2022-08-17T19:47:00.761Z,23.94
2022-08-17T19:49:57.156Z,23.84
2022-08-17T19:52:46.890Z,23.94
2022-08-17T19:55:22.209Z,23.92
2022-08-17T19:58:10.396Z,23.86
2022-08-17T20:00:50.517Z,23.76
2022-08-17T20:03:27.305Z,23.72
2022-08-17T20:06:12.499Z,23.75
2022-08-17T20:08:53.858Z,23.65
2022-08-17T20:11:26.090Z,23.59
2022-08-17T20:14:19.295Z,23.48
2022-08-17T20:16:46.431Z,23.48
2022-08-17T20:19:24.303Z,23.41
2022-08-17T20:22:04.229Z,23.36
2022-08-17T20:24:48.315Z,23.34
2022-08-17T20:27:31.741Z,23.30
2022-08-17T20:30:06.658Z,23.31
2022-08-17T20:32:48.862Z,23.27
2022-08-17T20:35:16.856Z,23.09
2022-08-17T20:37:52.867Z,23.11
2022-08-17T20:40:24.315Z,22.94
2022-08-17T20:42:50.926Z,22.78
2022-08-17T20:45:26.505Z,22.74
2022-08-17T20:51:09.658Z,22.73
2022-08-17T20:53:48.437Z,22.84
2022-08-17T20:56:48.927Z,22.79
2022-08-17T20:59:22.436Z,22.68
2022-08-17T21:02:18.057Z,22.62
2022-08-17T21:05:00.196Z,22.50
2022-08-17T21:07:42.954Z,22.36
2022-08-17T21:10:19.643Z,22.30
2022-08-17T21:13:07.439Z,22.19
2022-08-17T21:15:54.296Z,22.05
2022-08-17T21:18:44.671Z,22.12
2022-08-17T21:21:24.301Z,22.21
2022-08-17T21:23:57.489Z,22.23
2022-08-17T21:26:51.172Z,22.20
2022-08-17T21:29:31.046Z,22.23
2022-08-17T21:31:59.328Z,22.28
2022-08-17T21:34:33.149Z,22.08
2022-08-17T21:37:18.864Z,21.96
2022-08-17T21:39:54.050Z,21.93
2022-08-17T21:42:34.500Z,21.96
2022-08-17T21:45:17.992Z,22.07
2022-08-17T21:47:50.576Z,22.09
2022-08-17T21:50:24.438Z,22.06
2022-08-17T21:52:56.234Z,22.06
2022-08-17T21:55:28.331Z,21.88
2022-08-17T21:58:12.224Z,21.65
2022-08-17T22:00:41.102Z,21.41
2022-08-17T22:03:23.911Z,21.42
2022-08-17T22:05:51.623Z,21.33
2022-08-17T22:08:22.489Z,21.25
2022-08-17T22:10:51.340Z,21.15
2022-08-17T22:13:17.961Z,21.11
2022-08-17T22:16:15.701Z,21.08
2022-08-17T22:18:58.140Z,20.91
2022-08-17T22:21:25.422Z,20.91
2022-08-17T22:24:06.887Z,20.88
2022-08-17T22:27:07.710Z,20.99
2022-08-17T22:29:43.039Z,21.14
2022-08-17T22:32:09.898Z,21.24
2022-08-17T22:34:38.690Z,21.27
2022-08-17T22:37:29.024Z,21.29
2022-08-17T22:39:59.605Z,21.27
2022-08-17T22:42:26.409Z,21.16
2022-08-17T22:44:54.103Z,20.98
2022-08-17T22:47:40.993Z,20.97
2022-08-17T22:50:21.760Z,20.95
2022-08-17T22:53:17.069Z,21.05
2022-08-17T22:56:15.197Z,21.00
2022-08-17T22:59:10.711Z,21.00
2022-08-17T23:01:39.264Z,20.89
2022-08-17T23:04:09.793Z,20.74
2022-08-17T23:06:38.861Z,20.54
2022-08-17T23:09:07.170Z,20.38
2022-08-17T23:11:48.754Z,20.22
2022-08-17T23:14:18.576Z,20.23
2022-08-17T23:16:45.749Z,20.24
2022-08-17T23:19:16.100Z,20.27
2022-08-17T23:21:45.142Z,20.35
2022-08-17T23:24:17.840Z,20.40
2022-08-17T23:26:44.512Z,20.38
2022-08-17T23:29:11.001Z,20.43
2022-08-17T23:31:39.364Z,20.54
2022-08-17T23:34:11.732Z,20.57
2022-08-17T23:36:38.395Z,20.55
2022-08-17T23:39:06.547Z,20.57
2022-08-17T23:41:38.537Z,20.56
2022-08-17T23:44:06.534Z,20.51
2022-08-17T23:46:33.136Z,20.49
2022-08-17T23:49:00.534Z,20.44
2022-08-17T23:51:31.549Z,20.37
2022-08-17T23:54:07.684Z,20.29
2022-08-17T23:56:41.949Z,20.30
2022-08-17T23:59:08.533Z,20.27
